Time;durP1;ratioP1;P1;durP2;ratioP2;P2;SDS_P1;SDS_P2;PMS_P1;PMS_P2;Temp;Humidity;BMP_temperature;BMP_pressure;BME280_temperature;BME280_humidity;BME280_pressure;Samples;Min_cycle;Max_cycle;Signal;HPM_P1;HPM_P2
2023/12/23 00:00:07;;;;;;;5.78;1.95;;;;;;;8.58;76.51;99937.28;2532882;28;20075;-79
2023/12/23 00:01:20;;;;;;;9.43;2.95;;;;;;;8.50;76.59;99950.38;2540339;28;20049;-79
2023/12/23 00:02:35;;;;;;;9.82;5.43;;;;;;;8.42;76.61;99939.22;2533610;28;20045;-79
2023/12/23 00:03:48;;;;;;;14.10;10.50;;;;;;;8.33;77.04;99950.53;2532541;28;20048;-79
2023/12/23 00:05:03;;;;;;;10.30;2.70;;;;;;;8.27;77.54;99953.19;2532375;28;20495;-78
2023/12/23 00:06:17;;;;;;;10.07;1.80;;;;;;;8.22;77.72;99968.84;2533012;28;20049;-78
2023/12/23 00:07:31;;;;;;;7.88;2.90;;;;;;;8.20;77.71;99964.53;2540821;28;20059;-79
2023/12/23 00:08:44;;;;;;;12.20;2.05;;;;;;;8.19;77.71;99961.06;2532974;28;20049;-79
2023/12/23 00:09:59;;;;;;;12.00;4.15;;;;;;;8.21;78.16;99961.03;2532024;28;20041;-79
2023/12/23 00:11:12;;;;;;;6.20;1.92;;;;;;;8.21;77.87;99972.31;2532793;28;20050;-78
2023/12/23 00:12:27;;;;;;;7.05;1.98;;;;;;;8.22;78.19;99975.78;2532726;28;20053;-78
2023/12/23 00:13:40;;;;;;;7.20;1.70;;;;;;;8.23;78.45;99969.69;2540939;28;20068;-79
2023/12/23 00:14:56;;;;;;;10.65;2.67;;;;;;;8.21;77.89;99969.72;2534791;28;20140;-78
2023/12/23 00:16:10;;;;;;;18.77;2.95;;;;;;;8.21;78.19;99969.72;2534310;28;20048;-78
2023/12/23 00:17:24;;;;;;;6.90;2.75;;;;;;;8.21;78.16;99974.91;2541731;28;20057;-78
2023/12/23 00:18:38;;;;;;;7.65;2.22;;;;;;;8.19;77.97;99981.88;2534206;28;20050;-78
2023/12/23 00:19:52;;;;;;;5.85;2.65;;;;;;;8.18;77.79;99987.91;2534070;28;20049;-77
2023/12/23 00:21:05;;;;;;;6.68;2.10;;;;;;;8.15;78.22;99995.75;2534154;28;20681;-78
2023/12/23 00:22:20;;;;;;;8.65;2.13;;;;;;;8.12;78.68;99990.59;2541441;28;20049;-77
2023/12/23 00:23:33;;;;;;;4.35;2.28;;;;;;;8.11;78.49;99990.63;2540592;28;20052;-78
2023/12/23 00:24:48;;;;;;;6.80;2.67;;;;;;;8.07;78.64;99994.97;2534098;28;20421;-78
2023/12/23 00:26:01;;;;;;;7.70;2.28;;;;;;;8.06;78.33;99990.66;2538215;28;20037;-78
2023/12/23 00:27:16;;;;;;;9.88;2.28;;;;;;;8.04;78.68;99995.84;2537513;28;20567;-79
2023/12/23 00:28:29;;;;;;;5.35;3.33;;;;;;;8.02;79.24;99995.00;2542631;28;20048;-78
2023/12/23 00:29:43;;;;;;;11.95;2.83;;;;;;;7.99;79.10;99988.97;2533746;28;20045;-78
2023/12/23 00:30:58;;;;;;;8.98;2.53;;;;;;;7.99;79.33;99995.03;2536410;28;20052;-78
2023/12/23 00:32:13;;;;;;;17.77;4.47;;;;;;;7.98;79.35;99984.66;2534619;28;20084;-78
2023/12/23 00:33:26;;;;;;;14.68;2.47;;;;;;;7.98;79.41;99990.72;2541684;28;20045;-78
2023/12/23 00:34:40;;;;;;;8.38;3.47;;;;;;;7.99;79.17;99996.78;2536091;28;20049;-78
2023/12/23 00:35:54;;;;;;;5.60;2.45;;;;;;;7.99;79.27;100013.22;2541046;28;20046;-79
2023/12/23 00:37:08;;;;;;;9.52;2.35;;;;;;;8.00;79.35;100001.09;2538983;28;20048;-77
2023/12/23 00:38:22;;;;;;;7.90;1.73;;;;;;;7.99;79.31;100012.38;2536647;28;20048;-78
2023/12/23 00:39:36;;;;;;;7.90;2.50;;;;;;;8.00;79.19;100007.16;2542153;28;20049;-78
2023/12/23 00:40:49;;;;;;;7.85;3.83;;;;;;;8.01;79.54;100008.03;2536996;28;20363;-78
2023/12/23 00:42:04;;;;;;;6.75;3.05;;;;;;;7.98;79.38;100002.84;2538522;28;20055;-78
2023/12/23 00:43:18;;;;;;;7.43;2.33;;;;;;;7.95;79.65;100019.34;2533871;28;20057;-78
2023/12/23 00:44:32;;;;;;;10.52;1.98;;;;;;;7.94;79.59;100021.94;2542597;28;20498;-79
2023/12/23 00:45:46;;;;;;;11.52;3.00;;;;;;;7.92;79.48;100018.47;2533583;28;20056;-79
2023/12/23 00:47:02;;;;;;;5.65;2.65;;;;;;;7.88;79.55;100022.84;2534307;28;20056;-79
2023/12/23 00:48:15;;;;;;;14.07;2.80;;;;;;;7.86;79.84;100019.41;2534354;28;20053;-80
2023/12/23 00:49:29;;;;;;;11.75;2.92;;;;;;;7.82;79.86;100008.19;2534123;28;20046;-78
2023/12/23 00:50:43;;;;;;;10.85;4.07;;;;;;;7.80;80.17;100024.66;2542381;28;20056;-78
2023/12/23 00:51:59;;;;;;;7.07;2.50;;;;;;;7.74;80.58;100025.53;2538785;28;20045;-79
2023/12/23 00:53:12;;;;;;;9.63;2.60;;;;;;;7.70;80.71;100034.22;2537694;28;20081;-78
2023/12/23 00:54:27;;;;;;;12.82;2.85;;;;;;;7.67;80.63;100023.88;2534721;28;20045;-78
2023/12/23 00:55:40;;;;;;;7.50;2.40;;;;;;;7.64;80.97;100029.06;2534166;28;20514;-78
2023/12/23 00:56:54;;;;;;;18.15;5.55;;;;;;;7.61;81.13;100032.53;2538002;28;20045;-79
2023/12/23 00:58:08;;;;;;;10.30;5.85;;;;;;;7.58;81.36;100032.56;2538274;28;20047;-80
2023/12/23 00:59:22;;;;;;;15.23;3.85;;;;;;;7.57;81.50;100043.84;2542160;28;20049;-79
2023/12/23 01:00:37;;;;;;;6.70;2.50;;;;;;;7.57;81.67;100043.84;2536078;28;20056;-79
2023/12/23 01:01:52;;;;;;;11.93;2.53;;;;;;;7.57;81.86;100042.97;2540691;28;20041;-78
2023/12/23 01:03:06;;;;;;;12.27;2.38;;;;;;;7.59;81.85;100047.28;2538649;28;20044;-78
2023/12/23 01:04:21;;;;;;;9.13;2.47;;;;;;;7.59;81.72;100042.09;2536431;28;20392;-79
2023/12/23 01:05:34;;;;;;;5.72;1.83;;;;;;;7.60;81.79;100042.97;2542048;28;20036;-79
2023/12/23 01:06:49;;;;;;;6.05;1.58;;;;;;;7.60;81.44;100038.63;2534540;28;20057;-79
2023/12/23 01:08:03;;;;;;;11.05;2.50;;;;;;;7.62;81.81;100036.03;2538498;28;20041;-79
2023/12/23 01:09:17;;;;;;;11.45;3.78;;;;;;;7.63;81.51;100055.91;2537086;28;20053;-79
2023/12/23 01:10:31;;;;;;;5.88;2.15;;;;;;;7.62;81.80;100047.28;2542412;28;20056;-79
2023/12/23 01:11:45;;;;;;;6.20;1.67;;;;;;;7.64;81.53;100042.03;2536258;28;20084;-79
2023/12/23 01:12:58;;;;;;;7.05;2.45;;;;;;;7.65;81.57;100042.03;2540083;28;20045;-79
2023/12/23 01:14:13;;;;;;;5.05;1.88;;;;;;;7.67;81.52;100044.66;2538685;28;20049;-79
2023/12/23 01:15:26;;;;;;;9.55;2.53;;;;;;;7.67;81.44;100047.25;2534673;28;20046;-79
2023/12/23 01:16:41;;;;;;;10.70;2.08;;;;;;;7.70;81.47;100051.56;2533767;28;20060;-79
2023/12/23 01:17:54;;;;;;;6.82;1.95;;;;;;;7.72;81.16;100061.06;2537091;28;20425;-79
2023/12/23 01:19:10;;;;;;;8.82;1.98;;;;;;;7.73;81.38;100057.59;2539376;28;20081;-79
2023/12/23 01:20:23;;;;;;;12.63;2.60;;;;;;;7.74;81.14;100063.63;2534456;28;20050;-78
2023/12/23 01:21:38;;;;;;;8.65;2.40;;;;;;;7.74;81.24;100061.88;2541547;28;20047;-79
2023/12/23 01:22:51;;;;;;;8.38;2.20;;;;;;;7.73;81.21;100054.97;2536939;28;20052;-79
2023/12/23 01:24:06;;;;;;;9.75;2.28;;;;;;;7.73;81.33;100062.78;2539411;28;20051;-79
2023/12/23 01:25:22;;;;;;;8.68;2.13;;;;;;;7.73;81.25;100062.78;2540983;28;20454;-79
2023/12/23 01:26:36;;;;;;;7.53;1.80;;;;;;;7.76;81.07;100072.28;2536106;28;20107;-79
2023/12/23 01:27:49;;;;;;;3.72;1.83;;;;;;;7.76;81.27;100073.16;2541591;28;20053;-79
2023/12/23 01:29:04;;;;;;;4.80;2.08;;;;;;;7.78;80.95;100078.34;2539059;28;20045;-79
2023/12/23 01:30:17;;;;;;;7.68;2.35;;;;;;;7.80;80.91;100072.25;2538730;28;20045;-79
2023/12/23 01:31:32;;;;;;;5.55;1.98;;;;;;;7.81;81.06;100075.72;2534683;28;20628;-80
2023/12/23 01:32:45;;;;;;;8.07;2.38;;;;;;;7.82;81.05;100080.03;2542402;28;20422;-77
2023/12/23 01:33:59;;;;;;;9.80;2.80;;;;;;;7.81;80.92;100086.09;2533872;28;20037;-78
2023/12/23 01:35:14;;;;;;;15.20;2.80;;;;;;;7.83;80.59;100086.97;2534173;28;20045;-79
2023/12/23 01:36:29;;;;;;;14.15;4.10;;;;;;;7.84;80.68;100099.94;2534517;28;20055;-78
2023/12/23 01:37:42;;;;;;;11.32;3.97;;;;;;;7.88;80.50;100079.16;2535611;28;20049;-79
2023/12/23 01:38:56;;;;;;;6.53;1.92;;;;;;;7.90;80.39;100086.06;2540806;28;20041;-79
2023/12/23 01:40:10;;;;;;;6.60;1.92;;;;;;;7.92;80.45;100099.03;2534622;28;20470;-79
2023/12/23 01:41:24;;;;;;;5.38;2.05;;;;;;;7.93;80.11;100085.19;2536245;28;20041;-79
2023/12/23 01:42:39;;;;;;;12.80;2.22;;;;;;;7.92;80.01;100088.63;2534993;28;20113;-80
2023/12/23 01:43:53;;;;;;;12.13;2.40;;;;;;;7.92;80.01;100091.22;2534964;28;20099;-80
2023/12/23 01:45:08;;;;;;;10.57;2.10;;;;;;;7.91;80.07;100097.31;2534659;28;20049;-79
2023/12/23 01:46:21;;;;;;;16.75;2.72;;;;;;;7.90;80.02;100086.06;2534742;28;20132;-80
2023/12/23 01:47:37;;;;;;;8.00;3.38;;;;;;;7.88;80.13;100090.41;2534734;28;20057;-80
2023/12/23 01:48:50;;;;;;;10.18;2.58;;;;;;;7.85;80.18;100087.81;2534418;28;20049;-80
2023/12/23 01:50:06;;;;;;;10.43;2.78;;;;;;;7.84;80.26;100089.53;2537650;28;20059;-79
2023/12/23 01:51:21;;;;;;;8.80;2.35;;;;;;;7.83;80.25;100087.81;2537860;28;20058;-80
2023/12/23 01:52:36;;;;;;;9.48;3.78;;;;;;;7.84;80.21;100081.75;2534872;28;20086;-79
2023/12/23 01:53:49;;;;;;;10.00;2.90;;;;;;;7.85;80.19;100086.09;2534004;28;20052;-80
2023/12/23 01:55:04;;;;;;;7.93;2.20;;;;;;;7.88;80.15;100084.34;2533704;28;20068;-80
2023/12/23 01:56:18;;;;;;;10.20;1.90;;;;;;;7.88;79.95;100089.53;2534925;28;20414;-82
2023/12/23 01:57:32;;;;;;;5.95;1.98;;;;;;;7.90;79.95;100096.44;2533617;28;20055;-80
2023/12/23 01:58:46;;;;;;;8.82;1.70;;;;;;;7.91;79.73;100094.72;2534702;28;20041;-79
2023/12/23 02:00:01;;;;;;;8.27;2.97;;;;;;;7.94;79.71;100094.69;2533977;28;20059;-80
2023/12/23 02:01:14;;;;;;;13.43;2.13;;;;;;;7.96;79.64;100090.34;2533586;28;20049;-80
2023/12/23 02:02:29;;;;;;;6.53;2.28;;;;;;;7.95;79.65;100091.19;2543126;28;20073;-80
2023/12/23 02:03:42;;;;;;;12.35;1.90;;;;;;;7.96;79.55;100099.00;2535079;28;20049;-80
2023/12/23 02:04:57;;;;;;;9.60;2.20;;;;;;;7.98;79.19;100096.41;2535277;28;20049;-80
2023/12/23 02:06:10;;;;;;;7.20;2.38;;;;;;;7.97;79.17;100094.66;2534324;28;20041;-80
2023/12/23 02:07:26;;;;;;;10.15;3.20;;;;;;;7.98;79.25;100102.47;2534951;28;20049;-80
2023/12/23 02:08:40;;;;;;;4.47;2.08;;;;;;;8.00;79.11;100099.81;2535056;28;20060;-80
2023/12/23 02:09:54;;;;;;;8.77;3.08;;;;;;;8.01;79.17;100101.56;2534614;28;20536;-80
2023/12/23 02:11:11;;;;;;;9.98;4.65;;;;;;;8.01;79.07;100101.56;2534769;28;20053;-80
2023/12/23 02:12:28;;;;;;;11.35;2.33;;;;;;;8.02;78.96;100092.88;2542622;28;20077;-80
2023/12/23 02:13:51;;;;;;;3.85;1.45;;;;;;;8.01;78.95;100091.19;2534372;28;20049;-80
2023/12/23 02:15:09;;;;;;;14.32;2.28;;;;;;;8.01;79.15;100085.97;2535098;28;20138;-80
2023/12/23 02:16:23;;;;;;;9.05;2.67;;;;;;;8.02;78.96;100092.88;2535202;28;20045;-80
2023/12/23 02:17:39;;;;;;;5.25;2.10;;;;;;;8.03;78.74;100079.03;2534639;28;20068;-81
2023/12/23 02:18:52;;;;;;;8.52;2.60;;;;;;;8.03;78.66;100089.44;2534732;28;20049;-81
2023/12/23 02:20:08;;;;;;;10.90;2.65;;;;;;;8.06;78.47;100099.81;2534897;28;20052;-79
2023/12/23 02:21:23;;;;;;;9.70;1.98;;;;;;;8.06;78.30;100092.00;2534497;28;20052;-80
2023/12/23 02:22:38;;;;;;;5.85;1.85;;;;;;;8.07;78.44;100093.72;2535216;28;20053;-81
2023/12/23 02:23:51;;;;;;;7.68;2.17;;;;;;;8.08;78.46;100100.66;2534176;28;20046;-81
2023/12/23 02:25:07;;;;;;;5.97;2.10;;;;;;;8.07;78.48;100091.13;2534435;28;20468;-81
2023/12/23 02:26:22;;;;;;;7.15;1.75;;;;;;;8.07;78.21;100097.19;2536988;28;20443;-80
2023/12/23 02:27:40;;;;;;;8.18;2.78;;;;;;;8.09;78.13;100099.78;2542549;28;20088;-80
2023/12/23 02:28:56;;;;;;;11.60;3.13;;;;;;;8.10;77.75;100098.88;2536449;28;20071;-81
2023/12/23 02:30:13;;;;;;;4.13;1.92;;;;;;;8.12;77.88;100106.69;2535035;28;20407;-80
2023/12/23 02:31:27;;;;;;;12.23;1.90;;;;;;;8.14;77.28;100102.34;2534887;28;20413;-80
2023/12/23 02:32:43;;;;;;;9.80;2.55;;;;;;;8.16;77.35;100095.38;2534888;28;20056;-80
2023/12/23 02:33:56;;;;;;;5.30;2.13;;;;;;;8.16;77.41;100106.66;2534455;28;20045;-80
2023/12/23 02:35:11;;;;;;;8.65;1.90;;;;;;;8.17;77.20;100104.91;2539675;28;20045;-81
2023/12/23 02:36:26;;;;;;;14.40;3.58;;;;;;;8.16;76.81;100106.66;2537807;28;20060;-80
2023/12/23 02:37:41;;;;;;;2.58;1.77;;;;;;;8.17;76.64;100102.31;2534006;28;20127;-80
2023/12/23 02:38:55;;;;;;;5.03;2.55;;;;;;;8.17;76.75;100108.38;2534995;28;20120;-81
2023/12/23 02:40:10;;;;;;;6.45;2.65;;;;;;;8.17;76.54;100102.31;2534666;28;20426;-80
2023/12/23 02:41:23;;;;;;;11.60;4.30;;;;;;;8.18;76.88;100107.50;2534883;28;20041;-79
2023/12/23 02:42:38;;;;;;;5.43;2.05;;;;;;;8.17;76.62;100112.72;2535023;28;20049;-81
2023/12/23 02:43:51;;;;;;;8.82;1.88;;;;;;;8.16;76.92;100114.47;2534485;28;20370;-80
2023/12/23 02:45:07;;;;;;;12.38;2.17;;;;;;;8.17;76.88;100102.31;2534783;28;20051;-81
2023/12/23 02:46:21;;;;;;;7.20;2.05;;;;;;;8.16;76.52;100113.56;2535017;28;20071;-81
2023/12/23 02:47:36;;;;;;;8.63;3.20;;;;;;;8.15;76.80;100110.13;2535122;28;20045;-80
2023/12/23 02:48:49;;;;;;;7.15;3.25;;;;;;;8.14;76.81;100100.59;2535242;28;20045;-80
2023/12/23 02:50:04;;;;;;;9.98;1.95;;;;;;;8.14;76.89;100108.41;2533824;28;20048;-79
2023/12/23 02:51:17;;;;;;;13.85;4.32;;;;;;;8.15;76.80;100104.06;2535038;28;20406;-82
2023/12/23 02:52:33;;;;;;;10.05;2.78;;;;;;;8.15;76.82;100117.06;2535129;28;20080;-80
2023/12/23 02:53:47;;;;;;;5.05;2.10;;;;;;;8.14;76.79;100103.22;2542939;28;20044;-80
2023/12/23 02:55:01;;;;;;;7.15;1.95;;;;;;;8.12;76.88;100112.75;2535050;28;20560;-79
2023/12/23 02:56:14;;;;;;;5.97;1.60;;;;;;;8.13;77.01;100100.59;2541250;28;20049;-80
2023/12/23 02:57:29;;;;;;;11.38;5.10;;;;;;;8.14;77.18;100112.75;2537081;28;20048;-79
2023/12/23 02:58:42;;;;;;;7.32;2.45;;;;;;;8.13;76.88;100111.88;2543523;28;20052;-78
2023/12/23 02:59:56;;;;;;;5.18;1.70;;;;;;;8.12;76.78;100110.16;2534871;28;20045;-79
2023/12/23 03:01:10;;;;;;;7.03;2.47;;;;;;;8.12;76.69;100111.88;2534318;28;20057;-82
2023/12/23 03:02:24;;;;;;;4.93;1.67;;;;;;;8.13;76.73;100119.69;2535048;28;20068;-81
2023/12/23 03:03:38;;;;;;;5.68;1.83;;;;;;;8.13;76.83;100101.50;2542784;28;20049;-80
2023/12/23 03:04:52;;;;;;;9.93;3.58;;;;;;;8.12;76.90;100104.94;2534521;28;20053;-82
2023/12/23 03:06:06;;;;;;;4.55;1.90;;;;;;;8.11;77.01;100090.25;2534401;28;20315;-80
2023/12/23 03:07:20;;;;;;;11.15;3.25;;;;;;;8.11;76.91;100100.63;2541585;28;20052;-81
2023/12/23 03:08:36;;;;;;;9.13;2.22;;;;;;;8.10;76.73;100104.09;2536286;28;20490;-81
2023/12/23 03:09:51;;;;;;;4.53;2.45;;;;;;;8.11;77.12;100107.56;2534256;28;20065;-81
2023/12/23 03:11:04;;;;;;;5.13;1.88;;;;;;;8.09;76.98;100111.03;2534231;28;20509;-81
2023/12/23 03:12:19;;;;;;;13.38;3.22;;;;;;;8.08;77.22;100100.66;2534658;28;20069;-81
2023/12/23 03:13:32;;;;;;;4.88;2.35;;;;;;;8.09;77.21;100104.97;2533825;28;20076;-81
2023/12/23 03:14:46;;;;;;;11.30;3.60;;;;;;;8.07;77.02;100089.38;2534608;28;20508;-81
2023/12/23 03:16:00;;;;;;;5.30;2.85;;;;;;;8.09;77.20;100099.78;2538005;28;20514;-82
2023/12/23 03:17:14;;;;;;;4.22;1.80;;;;;;;8.07;76.82;100089.38;2539158;28;20117;-81
2023/12/23 03:18:28;;;;;;;8.77;1.98;;;;;;;8.07;77.08;100096.31;2534699;28;20057;-82
2023/12/23 03:19:42;;;;;;;9.15;2.67;;;;;;;8.08;76.82;100098.06;2534698;28;20045;-81
2023/12/23 03:20:56;;;;;;;11.38;4.47;;;;;;;8.07;76.65;100094.56;2537261;28;20061;-81
2023/12/23 03:22:10;;;;;;;10.85;2.35;;;;;;;8.07;76.87;100091.97;2533855;28;20124;-81
2023/12/23 03:23:23;;;;;;;3.50;1.90;;;;;;;8.07;76.96;100096.31;2534110;28;20045;-80
2023/12/23 03:24:39;;;;;;;6.13;2.33;;;;;;;8.09;76.79;100097.19;2533917;28;20080;-82
2023/12/23 03:25:53;;;;;;;8.98;2.47;;;;;;;8.08;76.63;100098.06;2534392;28;20053;-82
2023/12/23 03:27:07;;;;;;;5.35;2.75;;;;;;;8.09;76.83;100112.78;2533910;28;20407;-81
2023/12/23 03:28:20;;;;;;;5.68;2.13;;;;;;;8.09;76.39;100111.03;2533813;28;20041;-81
2023/12/23 03:29:35;;;;;;;9.07;2.50;;;;;;;8.11;76.38;100108.44;2541652;28;20056;-82
2023/12/23 03:30:48;;;;;;;4.82;1.73;;;;;;;8.11;76.49;100113.63;2534023;28;20639;-81
2023/12/23 03:32:03;;;;;;;5.43;2.00;;;;;;;8.12;76.58;100104.94;2537824;28;20052;-81
2023/12/23 03:33:16;;;;;;;9.15;2.30;;;;;;;8.10;76.66;100101.50;2533979;28;20045;-81
2023/12/23 03:34:31;;;;;;;7.07;2.45;;;;;;;8.10;76.72;100106.69;2534486;28;20057;-82
2023/12/23 03:35:44;;;;;;;11.60;2.05;;;;;;;8.09;76.64;100095.44;2535420;28;20045;-82
2023/12/23 03:36:58;;;;;;;7.97;2.67;;;;;;;8.11;76.25;100116.22;2540992;28;20045;-82
2023/12/23 03:38:12;;;;;;;4.60;2.30;;;;;;;8.11;76.27;100107.56;2533857;28;20046;-82
2023/12/23 03:39:26;;;;;;;6.85;2.90;;;;;;;8.11;76.45;100103.22;2540553;28;20044;-82
2023/12/23 03:40:41;;;;;;;4.90;2.70;;;;;;;8.11;76.42;100095.44;2535324;28;20053;-82
2023/12/23 03:41:55;;;;;;;5.18;2.13;;;;;;;8.13;76.23;100091.09;2533421;28;20049;-81
2023/12/23 03:43:09;;;;;;;5.40;2.47;;;;;;;8.13;75.94;100080.69;2534911;28;20052;-80
2023/12/23 03:44:23;;;;;;;7.10;3.03;;;;;;;8.14;76.01;100071.16;2534840;28;20046;-82
2023/12/23 03:45:38;;;;;;;2.67;1.80;;;;;;;8.13;75.98;100088.50;2534327;28;20068;-79
2023/12/23 03:46:56;;;;;;;2.65;2.03;;;;;;;8.13;75.69;100080.69;2534113;28;20069;-81
2023/12/23 03:48:09;;;;;;;28.48;3.55;;;;;;;8.12;75.81;100076.34;2534826;28;20092;-81
2023/12/23 03:49:23;;;;;;;11.30;2.95;;;;;;;8.13;75.64;100072.91;2536496;28;20521;-81
2023/12/23 03:50:37;;;;;;;6.82;2.35;;;;;;;8.12;75.69;100080.69;2536459;28;20053;-82
2023/12/23 03:51:51;;;;;;;6.47;2.08;;;;;;;8.13;75.46;100078.09;2538494;28;20051;-81
2023/12/23 03:53:05;;;;;;;5.40;2.15;;;;;;;8.14;75.47;100077.22;2542592;28;20160;-82
2023/12/23 03:54:19;;;;;;;7.45;2.22;;;;;;;8.14;75.34;100085.00;2536542;28;20061;-81
2023/12/23 03:55:32;;;;;;;4.22;2.33;;;;;;;8.15;75.33;100068.53;2536759;28;20053;-81
2023/12/23 03:56:48;;;;;;;3.72;1.98;;;;;;;8.15;75.47;100073.72;2546260;28;20053;-81
2023/12/23 03:58:02;;;;;;;10.18;1.90;;;;;;;8.15;75.21;100062.47;2543086;28;20045;-80
2023/12/23 03:59:17;;;;;;;7.30;2.25;;;;;;;8.15;75.36;100055.53;2536190;28;20056;-81
2023/12/23 04:00:30;;;;;;;17.15;5.18;;;;;;;8.14;75.57;100056.41;2535865;28;20053;-82
2023/12/23 04:01:45;;;;;;;6.05;2.28;;;;;;;8.16;75.57;100066.78;2535825;28;20049;-81
2023/12/23 04:02:58;;;;;;;5.50;3.45;;;;;;;8.16;75.43;100065.06;2535991;28;20407;-81
2023/12/23 04:04:13;;;;;;;10.48;2.50;;;;;;;8.16;75.45;100065.06;2539048;28;20046;-80
2023/12/23 04:05:26;;;;;;;3.83;2.42;;;;;;;8.17;75.21;100064.19;2539346;28;20046;-81
2023/12/23 04:06:41;;;;;;;6.00;2.13;;;;;;;8.17;75.28;100066.78;2539389;28;20055;-80
2023/12/23 04:07:54;;;;;;;4.28;2.03;;;;;;;8.17;75.13;100066.78;2546586;28;20106;-81
2023/12/23 04:09:10;;;;;;;6.85;1.90;;;;;;;8.19;75.12;100072.84;2539664;28;20046;-80
2023/12/23 04:10:23;;;;;;;6.60;2.55;;;;;;;8.18;75.02;100070.25;2539180;28;20057;-80
2023/12/23 04:11:38;;;;;;;10.70;2.38;;;;;;;8.18;75.16;100076.28;2545764;28;20048;-81
2023/12/23 04:12:52;;;;;;;3.17;2.88;;;;;;;8.19;74.78;100096.25;2538613;28;20049;-81
2023/12/23 04:14:07;;;;;;;4.22;2.35;;;;;;;8.20;74.75;100086.69;2542699;28;20114;-80
2023/12/23 04:15:20;;;;;;;4.78;1.90;;;;;;;8.20;74.82;100071.94;2537054;28;20049;-80
2023/12/23 04:16:38;;;;;;;7.10;2.17;;;;;;;8.21;74.73;100084.09;2537004;28;20056;-80
2023/12/23 04:17:52;;;;;;;4.20;2.33;;;;;;;8.21;74.91;100078.00;2537379;28;20068;-80
2023/12/23 04:19:06;;;;;;;3.30;1.58;;;;;;;8.20;74.90;100082.34;2537943;28;20048;-81
2023/12/23 04:20:20;;;;;;;6.85;2.38;;;;;;;8.21;74.42;100073.69;2537137;28;20635;-81
2023/12/23 04:21:34;;;;;;;4.20;1.83;;;;;;;8.22;74.25;100075.41;2536057;28;20117;-80
2023/12/23 04:22:48;;;;;;;11.25;4.50;;;;;;;8.22;74.43;100075.41;2536997;28;20056;-80
2023/12/23 04:24:02;;;;;;;9.65;2.97;;;;;;;8.23;74.28;100078.88;2539456;28;20374;-80
2023/12/23 04:25:16;;;;;;;7.95;2.65;;;;;;;8.23;74.31;100074.53;2540926;28;20054;-79
2023/12/23 04:26:31;;;;;;;9.50;6.78;;;;;;;8.23;74.69;100068.47;2537192;28;20057;-81
2023/12/23 04:27:44;;;;;;;16.25;14.40;;;;;;;8.23;74.60;100053.72;2537039;28;20053;-81
2023/12/23 04:29:00;;;;;;;8.95;4.85;;;;;;;8.24;74.65;100052.88;2536167;28;20046;-80
2023/12/23 04:30:13;;;;;;;10.82;7.38;;;;;;;8.24;74.05;100063.28;2540597;28;20045;-81
2023/12/23 04:31:28;;;;;;;7.05;4.25;;;;;;;8.25;73.82;100058.94;2539407;28;20050;-81
2023/12/23 04:32:41;;;;;;;18.42;13.15;;;;;;;8.25;73.98;100062.38;2536980;28;20045;-82
2023/12/23 04:33:55;;;;;;;20.98;14.15;;;;;;;8.25;74.05;100059.78;2544531;28;20513;-81
2023/12/23 04:35:09;;;;;;;11.18;9.73;;;;;;;8.25;74.05;100061.53;2541585;28;20041;-82
2023/12/23 04:36:23;;;;;;;11.55;9.90;;;;;;;8.24;74.44;100057.22;2537069;28;20053;-82
2023/12/23 04:37:41;;;;;;;24.60;21.17;;;;;;;8.24;74.26;100068.47;2535853;28;20069;-81
2023/12/23 04:38:56;;;;;;;25.10;16.52;;;;;;;8.25;74.07;100069.31;2536109;28;20053;-81
2023/12/23 04:40:10;;;;;;;14.63;12.85;;;;;;;8.25;74.36;100058.94;2536601;28;20042;-80
2023/12/23 04:41:25;;;;;;;5.53;3.20;;;;;;;8.22;74.44;100052.00;2541248;28;20104;-81
2023/12/23 04:42:38;;;;;;;19.00;16.95;;;;;;;8.22;75.28;100043.34;2539175;28;20060;-81
2023/12/23 04:43:53;;;;;;;15.40;10.63;;;;;;;8.21;75.09;100046.81;2538288;28;20064;-80
2023/12/23 04:45:09;;;;;;;16.40;11.25;;;;;;;8.20;75.27;100037.31;2540690;28;20045;-80
2023/12/23 04:46:23;;;;;;;8.88;5.65;;;;;;;8.16;75.23;100038.19;2542014;28;20050;-80
2023/12/23 04:47:37;;;;;;;7.20;4.88;;;;;;;8.17;75.24;100042.53;2536649;28;20045;-80
2023/12/23 04:48:51;;;;;;;8.85;5.28;;;;;;;8.14;74.99;100040.81;2544321;28;20053;-80
2023/12/23 04:50:06;;;;;;;8.65;5.53;;;;;;;8.15;75.24;100039.09;2542562;28;20045;-80
2023/12/23 04:51:21;;;;;;;10.60;4.72;;;;;;;8.15;75.39;100037.34;2536118;28;20045;-79
2023/12/23 04:52:34;;;;;;;14.68;8.52;;;;;;;8.15;75.15;100033.88;2542907;28;20068;-79
2023/12/23 04:53:49;;;;;;;9.13;5.18;;;;;;;8.16;74.88;100035.59;2536682;28;20041;-79
2023/12/23 04:55:05;;;;;;;6.07;4.20;;;;;;;8.17;74.75;100037.34;2537394;28;20052;-79
2023/12/23 04:56:19;;;;;;;18.15;8.52;;;;;;;8.17;74.82;100047.75;2536262;28;20080;-78
2023/12/23 04:57:33;;;;;;;3.67;2.42;;;;;;;8.18;74.85;100034.72;2541923;28;20056;-79
2023/12/23 04:58:47;;;;;;;2.13;1.63;;;;;;;8.17;74.89;100035.59;2537608;28;20068;-80
2023/12/23 05:00:01;;;;;;;10.10;5.68;;;;;;;8.18;74.88;100029.50;2542768;28;20049;-79
2023/12/23 05:01:17;;;;;;;4.40;1.92;;;;;;;8.19;74.50;100027.78;2536182;28;20514;-79
2023/12/23 05:02:30;;;;;;;7.50;2.22;;;;;;;8.22;74.66;100041.63;2535919;28;20049;-80
2023/12/23 05:03:45;;;;;;;16.48;10.60;;;;;;;8.21;74.90;100041.63;2543221;28;20045;-78
2023/12/23 05:04:58;;;;;;;8.82;4.90;;;;;;;8.20;75.39;100029.50;2537738;28;20053;-79
2023/12/23 05:06:12;;;;;;;2.38;2.00;;;;;;;8.20;74.63;100029.50;2540597;28;20049;-80
2023/12/23 05:07:26;;;;;;;7.93;4.22;;;;;;;8.19;75.20;100026.06;2541963;28;20060;-80
2023/12/23 05:08:40;;;;;;;3.15;2.85;;;;;;;8.18;75.16;100011.31;2538748;28;20053;-79
2023/12/23 05:09:54;;;;;;;9.50;2.20;;;;;;;8.17;75.14;100034.75;2537544;28;20038;-80
2023/12/23 05:11:08;;;;;;;5.57;4.88;;;;;;;8.17;75.01;100039.94;2542360;28;20052;-80
2023/12/23 05:12:22;;;;;;;5.68;3.13;;;;;;;8.16;75.84;100038.19;2536410;28;20466;-80
2023/12/23 05:13:36;;;;;;;9.18;4.65;;;;;;;8.12;75.90;100033.91;2535246;28;20120;-80
2023/12/23 05:14:50;;;;;;;2.45;1.48;;;;;;;8.07;76.18;100045.19;2544258;28;20050;-80
2023/12/23 05:16:05;;;;;;;2.70;1.75;;;;;;;8.05;76.06;100039.19;2537642;28;20451;-79
2023/12/23 05:17:20;;;;;;;12.75;2.88;;;;;;;8.05;76.06;100040.88;2539527;28;20050;-78
2023/12/23 05:18:34;;;;;;;2.38;1.25;;;;;;;8.03;76.06;100038.31;2535100;28;20061;-79
2023/12/23 05:19:48;;;;;;;4.00;1.40;;;;;;;8.02;76.26;100043.50;2536610;28;20490;-79
2023/12/23 05:21:02;;;;;;;2.25;1.60;;;;;;;8.01;76.51;100049.59;2543155;28;20045;-80
2023/12/23 05:22:16;;;;;;;3.33;1.52;;;;;;;7.99;76.75;100046.16;2535387;28;20049;-80
2023/12/23 05:23:30;;;;;;;2.95;1.42;;;;;;;7.96;76.96;100046.19;2541443;28;20104;-79
2023/12/23 05:24:46;;;;;;;2.03;1.10;;;;;;;7.93;77.09;100051.41;2537072;28;20045;-80
2023/12/23 05:26:00;;;;;;;4.78;1.42;;;;;;;7.91;76.92;100056.59;2534747;28;20057;-79
2023/12/23 05:27:14;;;;;;;4.45;1.35;;;;;;;7.88;77.30;100053.16;2536561;28;20053;-79
2023/12/23 05:28:28;;;;;;;2.97;1.58;;;;;;;7.84;77.35;100050.56;2535102;28;20054;-79
2023/12/23 05:29:42;;;;;;;3.63;1.58;;;;;;;7.79;77.73;100036.75;2542935;28;20045;-79
2023/12/23 05:30:56;;;;;;;2.03;1.30;;;;;;;7.75;77.82;100048.06;2535415;28;20061;-79
2023/12/23 05:32:10;;;;;;;2.25;1.63;;;;;;;7.73;78.05;100064.53;2535261;28;20049;-80
2023/12/23 05:33:25;;;;;;;2.85;1.20;;;;;;;7.70;78.44;100049.81;2534690;28;20049;-80
2023/12/23 05:34:39;;;;;;;4.82;1.65;;;;;;;7.67;78.44;100043.75;2542779;28;20060;-80
2023/12/23 05:35:53;;;;;;;2.75;1.20;;;;;;;7.64;78.78;100050.72;2535852;28;20046;-80
2023/12/23 05:37:07;;;;;;;1.75;1.40;;;;;;;7.61;79.13;100031.69;2539340;28;20045;-79
2023/12/23 05:38:21;;;;;;;3.00;0.98;;;;;;;7.57;79.20;100043.84;2540712;28;20045;-81
2023/12/23 05:39:35;;;;;;;3.67;1.13;;;;;;;7.56;79.58;100036.03;2535415;28;20046;-79
2023/12/23 05:40:49;;;;;;;3.33;1.30;;;;;;;7.53;79.75;100036.06;2537672;28;20417;-79
2023/12/23 05:42:03;;;;;;;3.83;1.13;;;;;;;7.51;79.71;100037.81;2537637;28;20437;-80
2023/12/23 05:43:17;;;;;;;1.02;0.90;;;;;;;7.48;79.81;100014.47;2540387;28;20053;-80
2023/12/23 05:44:31;;;;;;;2.83;1.23;;;;;;;7.47;79.93;100030.94;2535240;28;20055;-80
2023/12/23 05:45:45;;;;;;;2.08;1.48;;;;;;;7.45;80.50;100040.44;2543363;28;20037;-81
2023/12/23 05:46:59;;;;;;;2.13;1.30;;;;;;;7.44;80.43;100039.59;2542785;28;20060;-81
2023/12/23 05:48:14;;;;;;;1.73;1.27;;;;;;;7.44;80.63;100039.59;2536042;28;20053;-81